createdAt,value
2023-03-29T00:01:35.124Z,95930.69
2023-03-29T00:04:39.337Z,95921.47
2023-03-29T00:07:43.470Z,95920.06
2023-03-29T00:10:49.561Z,95924.28
2023-03-29T00:13:52.872Z,95927.22
2023-03-29T00:16:55.106Z,95925.84
2023-03-29T00:19:57.190Z,95923.31
2023-03-29T00:22:59.123Z,95933.63
2023-03-29T00:26:01.461Z,95914.75
2023-03-29T00:29:04.701Z,95907.66
2023-03-29T00:32:06.632Z,95893.66
2023-03-29T00:35:09.715Z,95905.13
2023-03-29T00:38:11.983Z,95915.41
2023-03-29T00:41:14.722Z,95925.28
2023-03-29T00:44:53.466Z,95925.38
2023-03-29T00:48:00.591Z,95913.34
2023-03-29T00:51:07.549Z,95912.59
2023-03-29T00:54:16.766Z,95903.09
2023-03-29T00:57:21.206Z,95905.91
2023-03-29T01:00:28.332Z,95900.91
2023-03-29T01:03:37.026Z,95904.22
2023-03-29T01:06:41.019Z,95911.34
2023-03-29T01:09:47.132Z,95919.94
2023-03-29T01:12:52.602Z,95922.63
2023-03-29T01:15:57.684Z,95943.91
2023-03-29T01:19:01.111Z,95937.19
2023-03-29T01:22:12.243Z,95923.69
2023-03-29T01:25:21.510Z,95925.06
2023-03-29T01:28:27.165Z,95932.13
2023-03-29T01:31:33.244Z,95946.91
2023-03-29T01:34:41.491Z,95956.28
2023-03-29T01:37:49.149Z,95949.63
2023-03-29T01:40:51.053Z,95953.78
2023-03-29T01:43:59.169Z,95930.53
2023-03-29T01:47:10.001Z,95943.06
2023-03-29T01:50:16.039Z,95943.88
2023-03-29T01:53:25.421Z,95937.59
2023-03-29T01:56:29.991Z,95956.19
2023-03-29T01:59:36.939Z,95942.72
2023-03-29T02:02:41.579Z,95930.28
2023-03-29T02:05:46.311Z,95949.53
2023-03-29T02:08:48.573Z,95950.94
2023-03-29T02:11:53.896Z,95961.88
2023-03-29T02:14:59.439Z,95919.72
2023-03-29T02:18:01.727Z,95954.88
2023-03-29T02:21:04.570Z,95949.41
2023-03-29T02:24:10.561Z,95945.34
2023-03-29T02:27:12.933Z,95946.47
2023-03-29T02:30:19.012Z,95950.09
2023-03-29T02:33:25.501Z,95949.19
2023-03-29T02:36:32.271Z,95941.06
2023-03-29T02:39:35.450Z,95931.31
2023-03-29T02:42:38.184Z,95927.38
2023-03-29T02:45:45.774Z,95926.81
2023-03-29T02:48:50.338Z,95930.25
2023-03-29T02:51:58.938Z,95933.25
2023-03-29T02:55:02.606Z,95920.09
2023-03-29T02:58:04.592Z,95927.63
2023-03-29T03:01:09.526Z,95923.41
2023-03-29T03:04:13.440Z,95917.28
2023-03-29T03:07:15.693Z,95916.94
2023-03-29T03:10:20.801Z,95909.88
2023-03-29T03:13:22.628Z,95908.47
2023-03-29T03:16:25.938Z,95904.25
2023-03-29T03:19:27.915Z,95908.38
2023-03-29T03:22:30.966Z,95910.56
2023-03-29T03:25:34.827Z,95908.84
2023-03-29T03:28:37.215Z,95908.69
2023-03-29T03:31:40.551Z,95899.13
2023-03-29T03:34:42.805Z,95898.81
2023-03-29T03:37:44.821Z,95896.63
2023-03-29T03:40:54.130Z,95895.56
2023-03-29T03:43:56.201Z,95888.06
2023-03-29T03:46:59.442Z,95886.97
2023-03-29T03:50:02.353Z,95881.63
2023-03-29T03:53:05.030Z,95875.34
2023-03-29T03:56:08.408Z,95874.75
2023-03-29T03:59:10.269Z,95866.94
2023-03-29T04:02:13.649Z,95873.53
2023-03-29T04:05:16.395Z,95865.69
2023-03-29T04:08:18.793Z,95866.94
2023-03-29T04:11:24.589Z,95872.28
2023-03-29T04:14:26.738Z,95884.63
2023-03-29T04:17:30.385Z,95876.03
2023-03-29T04:20:32.484Z,95866.94
2023-03-29T04:23:35.665Z,95868.34
2023-03-29T04:26:37.835Z,95854.25
2023-03-29T04:29:40.052Z,95849.56
2023-03-29T04:32:44.902Z,95857.81
2023-03-29T04:35:47.048Z,95841.56
2023-03-29T04:38:48.927Z,95848.28
2023-03-29T04:41:50.822Z,95836.72
2023-03-29T04:44:53.090Z,95840.34
2023-03-29T04:47:59.909Z,95835.19
2023-03-29T04:51:04.590Z,95840.94
2023-03-29T04:54:06.497Z,95835.47
2023-03-29T04:57:09.079Z,95828.91
2023-03-29T05:00:12.240Z,95826.25
2023-03-29T05:03:16.797Z,95826.09
2023-03-29T05:06:18.609Z,95812.47
2023-03-29T05:09:20.473Z,95802.78
2023-03-29T05:12:23.745Z,95810.59
2023-03-29T05:15:26.842Z,95816.56
2023-03-29T05:18:30.690Z,95813.72
2023-03-29T05:21:32.741Z,95801.97
2023-03-29T05:24:34.747Z,95801.34
2023-03-29T05:27:36.828Z,95795.41
2023-03-29T05:30:40.090Z,95786.78
2023-03-29T05:33:43.421Z,95781.94
2023-03-29T05:36:45.876Z,95776.16
2023-03-29T05:39:48.448Z,95779.44
2023-03-29T05:42:51.619Z,95773.94
2023-03-29T05:45:56.460Z,95775.69
2023-03-29T05:48:59.764Z,95777.88
2023-03-29T05:52:01.897Z,95773.78
2023-03-29T05:55:04.041Z,95761.25
2023-03-29T05:58:06.249Z,95779.59
2023-03-29T06:01:12.476Z,95771.28
2023-03-29T06:04:16.443Z,95779.25
2023-03-29T06:07:19.832Z,95778.00
2023-03-29T06:10:25.942Z,95777.50
2023-03-29T06:13:28.044Z,95780.50
2023-03-29T06:16:32.019Z,95779.59
2023-03-29T06:19:35.344Z,95777.53
2023-03-29T06:22:37.682Z,95780.97
2023-03-29T06:25:39.513Z,95785.03
2023-03-29T06:28:41.472Z,95791.59
2023-03-29T06:31:43.296Z,95795.22
2023-03-29T06:34:46.993Z,95793.16
2023-03-29T06:37:48.859Z,95793.47
2023-03-29T06:40:51.428Z,95788.13
2023-03-29T06:43:53.786Z,95788.44
2023-03-29T06:46:56.038Z,95787.34
2023-03-29T06:49:59.252Z,95789.50
2023-03-29T06:53:01.499Z,95782.94
2023-03-29T06:56:05.507Z,95799.66
2023-03-29T06:59:07.319Z,95796.03
2023-03-29T07:02:10.081Z,95800.28
2023-03-29T07:05:14.446Z,95798.84
2023-03-29T07:08:17.231Z,95794.94
2023-03-29T07:11:20.820Z,95802.16
2023-03-29T07:14:23.143Z,95807.06
2023-03-29T07:17:25.531Z,95815.53
2023-03-29T07:20:29.329Z,95815.81
2023-03-29T07:23:31.092Z,95816.56
2023-03-29T07:26:33.229Z,95809.69
2023-03-29T07:29:35.079Z,95823.31
2023-03-29T07:32:37.158Z,95812.81
2023-03-29T07:35:40.595Z,95811.56
2023-03-29T07:38:42.489Z,95822.00
2023-03-29T07:41:44.719Z,95826.25
2023-03-29T07:44:47.108Z,95817.91
2023-03-29T07:47:48.951Z,95820.59
2023-03-29T07:50:52.270Z,95820.22
2023-03-29T07:53:54.110Z,95825.38
2023-03-29T07:56:57.854Z,95818.53
2023-03-29T07:59:59.954Z,95824.09
2023-03-29T08:03:01.962Z,95818.47
2023-03-29T08:06:05.775Z,95810.59
2023-03-29T08:09:07.833Z,95810.16
2023-03-29T08:12:09.978Z,95814.22
2023-03-29T08:15:12.443Z,95806.53
2023-03-29T08:18:14.681Z,95811.81
2023-03-29T08:21:18.558Z,95812.75
2023-03-29T08:24:21.100Z,95805.34
2023-03-29T08:27:23.036Z,95816.41
2023-03-29T08:30:25.428Z,95808.81
2023-03-29T08:33:27.629Z,95804.38
2023-03-29T08:36:31.197Z,95805.09
2023-03-29T08:39:33.488Z,95816.72
2023-03-29T08:43:03.474Z,95812.94
2023-03-29T08:46:16.063Z,95809.72
2023-03-29T08:49:20.378Z,95805.81
2023-03-29T08:52:33.820Z,95809.91
2023-03-29T08:55:39.248Z,95814.63
2023-03-29T08:58:43.805Z,95811.09
2023-03-29T09:01:52.156Z,95813.13
2023-03-29T09:04:58.762Z,95808.22
2023-03-29T09:08:02.731Z,95810.38
2023-03-29T09:11:29.532Z,95799.13
2023-03-29T09:14:47.387Z,95809.22
2023-03-29T09:18:04.228Z,95792.88
2023-03-29T09:21:16.897Z,95796.53
2023-03-29T09:24:41.068Z,95797.75
2023-03-29T09:27:49.161Z,95809.47
2023-03-29T09:30:58.716Z,95800.47
2023-03-29T09:34:08.545Z,95807.84
2023-03-29T09:37:15.358Z,95797.63
2023-03-29T09:40:22.633Z,95805.50
2023-03-29T09:43:31.097Z,95804.81
2023-03-29T09:46:39.184Z,95804.53
2023-03-29T09:49:46.294Z,95802.09
2023-03-29T09:52:50.012Z,95800.00
2023-03-29T09:55:53.410Z,95797.69
2023-03-29T09:58:55.882Z,95790.47
2023-03-29T10:02:07.145Z,95795.41
2023-03-29T10:05:16.829Z,95794.88
2023-03-29T10:08:22.357Z,95784.31
2023-03-29T10:11:31.481Z,95784.81
2023-03-29T10:14:36.024Z,95783.44
2023-03-29T10:17:40.873Z,95786.25
2023-03-29T10:20:43.150Z,95784.00
2023-03-29T10:23:44.933Z,95780.47
2023-03-29T10:26:51.148Z,95776.66
2023-03-29T10:29:54.373Z,95773.88
2023-03-29T10:32:58.378Z,95777.31
2023-03-29T10:36:03.204Z,95773.75
2023-03-29T10:39:06.167Z,95768.06
2023-03-29T10:42:13.577Z,95766.41
2023-03-29T10:45:25.786Z,95761.50
2023-03-29T10:48:30.022Z,95761.59
2023-03-29T10:51:32.901Z,95756.72
2023-03-29T10:54:35.686Z,95755.47
2023-03-29T10:57:50.940Z,95748.00
2023-03-29T11:00:56.462Z,95749.00
2023-03-29T11:04:10.841Z,95737.84
2023-03-29T11:07:28.907Z,95734.50
2023-03-29T11:10:39.008Z,95728.91
2023-03-29T11:13:49.394Z,95726.06
2023-03-29T11:17:03.639Z,95729.19
2023-03-29T11:20:19.472Z,95729.16
2023-03-29T11:23:33.329Z,95728.81
2023-03-29T11:26:43.136Z,95721.41
2023-03-29T11:30:00.780Z,95719.13
2023-03-29T11:33:14.399Z,95716.56
2023-03-29T11:36:21.339Z,95722.25
2023-03-29T11:39:35.417Z,95715.91
2023-03-29T11:42:43.581Z,95709.44
2023-03-29T11:45:58.293Z,95706.84
2023-03-29T11:49:06.706Z,95710.03
2023-03-29T11:52:14.474Z,95698.88
2023-03-29T11:55:19.591Z,95706.47
2023-03-29T11:58:31.203Z,95699.91
2023-03-29T12:01:42.386Z,95695.97
2023-03-29T12:04:49.375Z,95689.28
2023-03-29T12:08:01.320Z,95690.63
2023-03-29T12:11:08.391Z,95685.63
2023-03-29T12:14:16.317Z,95687.94
2023-03-29T12:17:24.696Z,95682.03
2023-03-29T12:20:31.798Z,95670.72
2023-03-29T12:23:34.021Z,95675.88
2023-03-29T12:26:51.382Z,95670.28
2023-03-29T12:30:22.668Z,95657.78
2023-03-29T12:33:43.010Z,95654.41
2023-03-29T12:37:13.588Z,95650.59
2023-03-29T12:40:17.505Z,95644.91
2023-03-29T12:43:25.099Z,95643.44
2023-03-29T12:46:31.771Z,95645.97
2023-03-29T12:49:39.118Z,95645.22
2023-03-29T12:52:42.365Z,95645.22
2023-03-29T12:55:54.460Z,95639.47
2023-03-29T12:59:06.359Z,95643.72
2023-03-29T13:02:33.612Z,95644.84
2023-03-29T13:05:36.924Z,95636.53
2023-03-29T13:08:41.748Z,95638.25
2023-03-29T13:11:44.692Z,95648.09
2023-03-29T13:14:50.944Z,95642.28
2023-03-29T13:17:59.624Z,95646.97
2023-03-29T13:21:11.849Z,95638.47
2023-03-29T13:24:31.503Z,95645.47
2023-03-29T13:27:44.208Z,95641.50
2023-03-29T13:30:58.812Z,95641.03
2023-03-29T13:34:10.484Z,95643.69
2023-03-29T13:37:33.949Z,95628.69
2023-03-29T13:40:45.513Z,95622.88
2023-03-29T13:43:53.644Z,95626.69
2023-03-29T13:47:03.833Z,95618.97
2023-03-29T13:50:16.506Z,95615.41
2023-03-29T13:53:27.615Z,95611.97
2023-03-29T13:56:34.921Z,95602.00
2023-03-29T13:59:44.909Z,95600.56
2023-03-29T14:02:52.048Z,95606.00
2023-03-29T14:05:58.742Z,95606.03
2023-03-29T14:09:05.127Z,95605.59
2023-03-29T14:12:11.542Z,95598.19
2023-03-29T14:15:22.968Z,95608.94
2023-03-29T14:18:27.330Z,95605.13
2023-03-29T14:21:29.735Z,95602.41
2023-03-29T14:24:41.047Z,95608.34
2023-03-29T14:27:43.423Z,95602.13
2023-03-29T14:30:46.374Z,95597.38
2023-03-29T14:33:52.835Z,95593.94
2023-03-29T14:36:55.332Z,95583.25
2023-03-29T14:39:59.140Z,95581.03
2023-03-29T14:43:05.843Z,95576.06
2023-03-29T14:46:08.601Z,95581.38
2023-03-29T14:49:15.056Z,95592.25
2023-03-29T14:52:19.504Z,95584.94
2023-03-29T14:55:24.267Z,95582.59
2023-03-29T14:58:28.927Z,95582.94
2023-03-29T15:01:31.625Z,95582.97
2023-03-29T15:04:35.342Z,95579.25
2023-03-29T15:07:37.596Z,95590.63
2023-03-29T15:10:43.014Z,95581.34
2023-03-29T15:13:47.577Z,95577.53
2023-03-29T15:16:51.525Z,95567.16
2023-03-29T15:19:59.027Z,95574.50
2023-03-29T15:23:03.702Z,95563.69
2023-03-29T15:26:14.948Z,95561.81
2023-03-29T15:29:17.953Z,95563.38
2023-03-29T15:32:22.027Z,95549.47
2023-03-29T15:35:25.636Z,95555.72
2023-03-29T15:38:40.468Z,95548.78
2023-03-29T15:41:49.542Z,95551.50
2023-03-29T15:44:53.741Z,95547.63
2023-03-29T15:47:56.936Z,95553.84
2023-03-29T15:51:01.518Z,95555.47
2023-03-29T15:54:05.123Z,95548.56
2023-03-29T15:57:13.572Z,95553.97
2023-03-29T16:00:19.686Z,95541.59
2023-03-29T16:03:22.124Z,95544.31
2023-03-29T16:06:25.771Z,95547.34
2023-03-29T16:09:27.587Z,95551.25
2023-03-29T16:12:31.355Z,95553.16
2023-03-29T16:15:34.304Z,95550.84
2023-03-29T16:18:39.514Z,95544.31
2023-03-29T16:21:42.728Z,95541.59
2023-03-29T16:24:45.052Z,95537.34
2023-03-29T16:27:49.056Z,95543.53
2023-03-29T16:30:51.505Z,95544.31
2023-03-29T16:33:53.658Z,95543.50
2023-03-29T16:36:56.264Z,95551.22
2023-03-29T16:39:58.993Z,95552.78
2023-03-29T16:43:05.553Z,95549.28
2023-03-29T16:46:09.314Z,95559.72
2023-03-29T16:49:13.297Z,95558.50
2023-03-29T16:52:16.007Z,95548.50
2023-03-29T16:55:18.248Z,95555.00
2023-03-29T16:58:21.502Z,95556.53
2023-03-29T17:01:23.488Z,95570.00
2023-03-29T17:04:25.399Z,95572.28
2023-03-29T17:07:28.762Z,95567.66
2023-03-29T17:10:32.080Z,95571.50
2023-03-29T17:13:36.014Z,95570.28
2023-03-29T17:16:38.471Z,95561.00
2023-03-29T17:19:40.752Z,95558.69
2023-03-29T17:22:44.012Z,95556.41
2023-03-29T17:25:49.246Z,95564.88
2023-03-29T17:28:52.802Z,95565.22
2023-03-29T17:31:55.687Z,95574.09
2023-03-29T17:34:57.983Z,95582.13
2023-03-29T17:38:01.745Z,95580.03
2023-03-29T17:41:04.747Z,95581.03
2023-03-29T17:44:08.043Z,95581.41
2023-03-29T17:47:11.074Z,95576.75
2023-03-29T17:50:15.478Z,95576.34
2023-03-29T17:53:21.057Z,95586.41
2023-03-29T17:56:24.393Z,95585.19
2023-03-29T17:59:30.998Z,95602.03
2023-03-29T18:02:34.672Z,95601.13
2023-03-29T18:05:37.648Z,95593.41
2023-03-29T18:08:40.712Z,95600.25
2023-03-29T18:11:42.869Z,95597.88
2023-03-29T18:14:51.886Z,95601.25
2023-03-29T18:17:55.692Z,95605.41
2023-03-29T18:20:58.442Z,95610.88
2023-03-29T18:24:01.519Z,95604.38
2023-03-29T18:27:04.841Z,95615.56
2023-03-29T18:30:16.275Z,95614.91
2023-03-29T18:33:20.021Z,95612.56
2023-03-29T18:36:24.914Z,95623.81
2023-03-29T18:39:27.714Z,95626.19
2023-03-29T18:42:31.060Z,95627.75
2023-03-29T18:45:35.150Z,95618.91
2023-03-29T18:48:37.601Z,95617.31
2023-03-29T18:51:40.494Z,95616.19
2023-03-29T18:54:43.834Z,95620.34
2023-03-29T18:57:47.252Z,95622.69
2023-03-29T19:00:51.916Z,95614.22
2023-03-29T19:03:54.697Z,95615.81
2023-03-29T19:06:57.750Z,95607.25
2023-03-29T19:09:59.991Z,95608.03
2023-03-29T19:13:04.105Z,95603.81
2023-03-29T19:16:09.751Z,95605.28
2023-03-29T19:19:12.821Z,95601.88
2023-03-29T19:22:18.802Z,95610.31
2023-03-29T19:25:23.332Z,95605.00
2023-03-29T19:28:27.561Z,95599.97
2023-03-29T19:31:33.057Z,95596.53
2023-03-29T19:34:38.535Z,95595.00
2023-03-29T19:37:42.948Z,95590.28
2023-03-29T19:40:46.318Z,95594.91
2023-03-29T19:43:48.641Z,95589.50
2023-03-29T19:46:52.958Z,95585.25
2023-03-29T19:49:58.502Z,95584.09
2023-03-29T19:53:03.096Z,95577.97
2023-03-29T19:56:06.154Z,95565.22
2023-03-29T19:59:08.938Z,95574.13
2023-03-29T20:02:14.580Z,95573.66
2023-03-29T20:05:17.026Z,95581.78
2023-03-29T20:08:21.054Z,95574.81
2023-03-29T20:11:23.119Z,95581.00
2023-03-29T20:14:25.178Z,95577.59
2023-03-29T20:17:28.534Z,95583.03
2023-03-29T20:20:31.197Z,95581.91
2023-03-29T20:23:33.404Z,95576.94
2023-03-29T20:26:35.592Z,95571.44
2023-03-29T20:29:40.847Z,95576.59
2023-03-29T20:32:45.208Z,95577.31
2023-03-29T20:35:48.863Z,95581.22
2023-03-29T20:38:51.019Z,95574.25
2023-03-29T20:41:53.037Z,95575.81
2023-03-29T20:44:55.666Z,95569.56
2023-03-29T20:48:02.142Z,95568.38
2023-03-29T20:51:04.483Z,95570.69
2023-03-29T20:54:06.399Z,95558.38
2023-03-29T20:57:10.774Z,95562.25
2023-03-29T21:00:14.867Z,95557.69
2023-03-29T21:03:18.404Z,95546.47
2023-03-29T21:06:22.261Z,95545.78
2023-03-29T21:09:24.448Z,95543.03
2023-03-29T21:12:26.701Z,95541.13
2023-03-29T21:15:29.321Z,95534.25
2023-03-29T21:18:32.592Z,95520.22
2023-03-29T21:21:35.959Z,95508.28
2023-03-29T21:24:37.755Z,95515.25
2023-03-29T21:27:39.616Z,95521.38
2023-03-29T21:30:41.665Z,95522.94
2023-03-29T21:33:45.037Z,95517.91
2023-03-29T21:36:47.148Z,95510.56
2023-03-29T21:39:49.260Z,95511.31
2023-03-29T21:42:51.634Z,95512.81
2023-03-29T21:45:54.760Z,95502.50
2023-03-29T21:48:58.330Z,95492.81
2023-03-29T21:52:01.773Z,95500.53
2023-03-29T21:55:04.371Z,95496.28
2023-03-29T21:58:08.734Z,95492.81
2023-03-29T22:01:13.240Z,95490.94
2023-03-29T22:04:25.826Z,95486.66
2023-03-29T22:07:36.840Z,95484.38
2023-03-29T22:10:39.672Z,95476.63
2023-03-29T22:13:42.490Z,95471.25
2023-03-29T22:16:44.349Z,95470.88
2023-03-29T22:19:48.265Z,95469.69
2023-03-29T22:22:51.429Z,95469.69
2023-03-29T22:25:53.936Z,95468.50
2023-03-29T22:28:57.890Z,95465.06
2023-03-29T22:31:59.937Z,95462.72
2023-03-29T22:35:03.714Z,95467.31
2023-03-29T22:38:07.020Z,95462.28
2023-03-29T22:41:09.398Z,95460.38
2023-03-29T22:44:12.417Z,95462.28
2023-03-29T22:47:14.599Z,95476.16
2023-03-29T22:50:18.203Z,95476.81
2023-03-29T22:53:20.042Z,95478.28
2023-03-29T22:56:22.721Z,95470.59
2023-03-29T22:59:24.805Z,95478.03
2023-03-29T23:02:27.596Z,95481.91
2023-03-29T23:05:32.628Z,95488.16
2023-03-29T23:08:35.100Z,95482.50
2023-03-29T23:11:37.396Z,95481.31
2023-03-29T23:14:39.623Z,95482.03
2023-03-29T23:17:43.402Z,95480.91
2023-03-29T23:20:47.933Z,95476.31
2023-03-29T23:23:50.154Z,95473.97
2023-03-29T23:26:54.468Z,95482.84
2023-03-29T23:29:56.655Z,95489.00
2023-03-29T23:32:59.236Z,95489.81
2023-03-29T23:36:04.640Z,95479.34
2023-03-29T23:39:07.025Z,95473.88
2023-03-29T23:42:09.231Z,95474.72
2023-03-29T23:45:13.132Z,95478.19
2023-03-29T23:48:15.036Z,95492.13
2023-03-29T23:51:19.004Z,95499.13
2023-03-29T23:54:22.091Z,95479.53
2023-03-29T23:57:24.306Z,95484.94
